sensor_id;sensor_type;location;lat;lon;timestamp;pressure;altitude;pressure_sealevel;temperature;humidity
49545;BME280;74870;42.636;23.302;2024-03-06T00:00:11;92891.34;;;7.24;68.46
49545;BME280;74870;42.636;23.302;2024-03-06T00:02:36;92827.81;;;6.76;68.50
49545;BME280;74870;42.636;23.302;2024-03-06T00:05:02;92892.66;;;7.22;68.67
49545;BME280;74870;42.636;23.302;2024-03-06T00:07:29;92864.34;;;7.05;67.98
49545;BME280;74870;42.636;23.302;2024-03-06T00:09:54;92894.03;;;7.14;67.93
49545;BME280;74870;42.636;23.302;2024-03-06T00:12:20;92894.03;;;7.14;67.95
49545;BME280;74870;42.636;23.302;2024-03-06T00:14:45;92902.41;;;7.11;67.86
49545;BME280;74870;42.636;23.302;2024-03-06T00:17:10;92895.13;;;7.08;67.58
49545;BME280;74870;42.636;23.302;2024-03-06T00:19:36;92880.78;;;6.72;67.91
49545;BME280;74870;42.636;23.302;2024-03-06T00:22:02;92859.44;;;6.65;67.99
49545;BME280;74870;42.636;23.302;2024-03-06T00:24:27;92858.50;;;6.51;67.41
49545;BME280;74870;42.636;23.302;2024-03-06T00:26:53;92889.09;;;6.79;67.30
49545;BME280;74870;42.636;23.302;2024-03-06T00:29:18;92888.06;;;6.75;67.09
49545;BME280;74870;42.636;23.302;2024-03-06T00:31:45;92888.47;;;6.58;67.46
49545;BME280;74870;42.636;23.302;2024-03-06T00:34:11;92890.00;;;6.59;67.48
49545;BME280;74870;42.636;23.302;2024-03-06T00:36:39;92888.22;;;6.55;67.10
49545;BME280;74870;42.636;23.302;2024-03-06T00:39:04;92883.84;;;6.40;67.43
49545;BME280;74870;42.636;23.302;2024-03-06T00:41:30;92884.69;;;6.36;67.52
49545;BME280;74870;42.636;23.302;2024-03-06T00:43:56;92880.50;;;6.35;67.67
49545;BME280;74870;42.636;23.302;2024-03-06T00:46:21;92890.13;;;6.44;68.32
49545;BME280;74870;42.636;23.302;2024-03-06T00:48:47;92894.38;;;6.25;69.34
49545;BME280;74870;42.636;23.302;2024-03-06T00:51:12;92883.00;;;6.06;70.86
49545;BME280;74870;42.636;23.302;2024-03-06T00:53:38;92893.38;;;6.16;70.65
49545;BME280;74870;42.636;23.302;2024-03-06T00:56:04;92892.31;;;6.22;70.32
49545;BME280;74870;42.636;23.302;2024-03-06T00:58:29;92864.75;;;6.06;71.01
49545;BME280;74870;42.636;23.302;2024-03-06T01:00:54;92895.41;;;6.24;71.20
49545;BME280;74870;42.636;23.302;2024-03-06T01:03:20;92890.22;;;6.24;71.14
49545;BME280;74870;42.636;23.302;2024-03-06T01:05:46;92891.03;;;6.15;71.86
49545;BME280;74870;42.636;23.302;2024-03-06T01:08:11;92897.78;;;6.21;72.50
49545;BME280;74870;42.636;23.302;2024-03-06T01:10:37;92899.88;;;6.24;72.63
49545;BME280;74870;42.636;23.302;2024-03-06T01:13:02;92881.13;;;6.22;72.34
49545;BME280;74870;42.636;23.302;2024-03-06T01:15:28;92887.88;;;6.23;72.32
49545;BME280;74870;42.636;23.302;2024-03-06T01:17:53;92885.94;;;6.38;71.59
49545;BME280;74870;42.636;23.302;2024-03-06T01:20:19;92873.97;;;6.37;71.29
49545;BME280;74870;42.636;23.302;2024-03-06T01:22:44;92894.25;;;6.50;71.34
49545;BME280;74870;42.636;23.302;2024-03-06T01:25:11;92892.69;;;6.49;70.86
49545;BME280;74870;42.636;23.302;2024-03-06T01:27:37;92900.22;;;6.51;70.79
49545;BME280;74870;42.636;23.302;2024-03-06T01:30:02;92897.38;;;6.52;70.76
49545;BME280;74870;42.636;23.302;2024-03-06T01:32:29;92889.56;;;6.47;70.68
49545;BME280;74870;42.636;23.302;2024-03-06T01:34:54;92903.69;;;6.36;71.13
49545;BME280;74870;42.636;23.302;2024-03-06T01:37:20;92896.69;;;6.32;71.58
49545;BME280;74870;42.636;23.302;2024-03-06T01:39:45;92896.94;;;6.35;71.66
49545;BME280;74870;42.636;23.302;2024-03-06T01:42:10;92903.47;;;6.33;71.61
49545;BME280;74870;42.636;23.302;2024-03-06T01:44:36;92895.13;;;6.31;71.75
49545;BME280;74870;42.636;23.302;2024-03-06T01:47:01;92893.81;;;6.33;71.19
49545;BME280;74870;42.636;23.302;2024-03-06T01:49:27;92890.13;;;6.39;70.79
49545;BME280;74870;42.636;23.302;2024-03-06T01:51:55;92881.75;;;6.47;70.13
49545;BME280;74870;42.636;23.302;2024-03-06T01:54:21;92878.63;;;6.45;69.48
49545;BME280;74870;42.636;23.302;2024-03-06T01:56:48;92787.53;;;5.71;69.37
49545;BME280;74870;42.636;23.302;2024-03-06T01:59:21;92890.66;;;6.36;69.69
49545;BME280;74870;42.636;23.302;2024-03-06T02:01:47;92898.97;;;6.43;69.25
49545;BME280;74870;42.636;23.302;2024-03-06T02:04:12;92889.84;;;6.41;68.79
49545;BME280;74870;42.636;23.302;2024-03-06T02:06:39;92892.50;;;6.36;68.79
49545;BME280;74870;42.636;23.302;2024-03-06T02:09:05;92899.78;;;6.39;68.38
49545;BME280;74870;42.636;23.302;2024-03-06T02:11:32;92892.22;;;6.37;68.44
49545;BME280;74870;42.636;23.302;2024-03-06T02:13:57;92901.41;;;6.25;68.35
49545;BME280;74870;42.636;23.302;2024-03-06T02:16:23;92890.06;;;6.06;68.65
49545;BME280;74870;42.636;23.302;2024-03-06T02:18:55;92901.97;;;6.17;68.44
49545;BME280;74870;42.636;23.302;2024-03-06T02:21:23;92900.13;;;6.22;68.39
49545;BME280;74870;42.636;23.302;2024-03-06T02:23:49;92889.22;;;6.10;68.29
49545;BME280;74870;42.636;23.302;2024-03-06T02:26:16;92895.28;;;6.06;68.09
49545;BME280;74870;42.636;23.302;2024-03-06T02:28:49;92905.88;;;6.19;67.93
49545;BME280;74870;42.636;23.302;2024-03-06T02:31:18;92913.19;;;6.12;68.05
49545;BME280;74870;42.636;23.302;2024-03-06T02:33:45;92915.81;;;6.17;67.60
49545;BME280;74870;42.636;23.302;2024-03-06T02:36:13;92913.56;;;5.96;67.47
49545;BME280;74870;42.636;23.302;2024-03-06T02:38:38;92917.16;;;6.10;67.98
49545;BME280;74870;42.636;23.302;2024-03-06T02:41:04;92910.59;;;6.12;68.34
49545;BME280;74870;42.636;23.302;2024-03-06T02:43:31;92915.31;;;6.10;68.71
49545;BME280;74870;42.636;23.302;2024-03-06T02:45:57;92870.91;;;5.71;68.71
49545;BME280;74870;42.636;23.302;2024-03-06T02:48:22;92916.91;;;5.96;68.26
49545;BME280;74870;42.636;23.302;2024-03-06T02:50:48;92916.91;;;6.01;67.88
49545;BME280;74870;42.636;23.302;2024-03-06T02:53:14;92917.19;;;6.00;67.59
49545;BME280;74870;42.636;23.302;2024-03-06T02:55:39;92849.34;;;5.51;67.52
49545;BME280;74870;42.636;23.302;2024-03-06T02:58:05;92845.72;;;5.47;67.86
49545;BME280;74870;42.636;23.302;2024-03-06T03:00:30;92910.44;;;5.88;68.16
49545;BME280;74870;42.636;23.302;2024-03-06T03:02:57;92912.03;;;5.79;68.65
49545;BME280;74870;42.636;23.302;2024-03-06T03:05:23;92918.00;;;5.85;68.85
49545;BME280;74870;42.636;23.302;2024-03-06T03:07:49;92874.84;;;5.59;68.51
49545;BME280;74870;42.636;23.302;2024-03-06T03:10:14;92843.63;;;5.44;68.67
49545;BME280;74870;42.636;23.302;2024-03-06T03:12:40;92882.38;;;5.65;69.30
49545;BME280;74870;42.636;23.302;2024-03-06T03:15:05;92912.53;;;5.86;68.82
49545;BME280;74870;42.636;23.302;2024-03-06T03:17:32;92925.59;;;5.71;68.79
49545;BME280;74870;42.636;23.302;2024-03-06T03:19:59;92922.47;;;5.69;68.63
49545;BME280;74870;42.636;23.302;2024-03-06T03:22:24;92924.53;;;5.72;68.54
49545;BME280;74870;42.636;23.302;2024-03-06T03:24:49;92928.94;;;5.72;68.31
49545;BME280;74870;42.636;23.302;2024-03-06T03:27:15;92918.56;;;5.62;68.62
49545;BME280;74870;42.636;23.302;2024-03-06T03:29:40;92891.50;;;5.48;68.38
49545;BME280;74870;42.636;23.302;2024-03-06T03:32:06;92917.53;;;5.63;68.91
49545;BME280;74870;42.636;23.302;2024-03-06T03:34:34;92896.50;;;5.34;68.88
49545;BME280;74870;42.636;23.302;2024-03-06T03:36:59;92924.84;;;5.51;68.49
49545;BME280;74870;42.636;23.302;2024-03-06T03:39:25;92907.44;;;5.36;68.14
49545;BME280;74870;42.636;23.302;2024-03-06T03:41:52;92924.84;;;5.46;68.56
49545;BME280;74870;42.636;23.302;2024-03-06T03:44:18;92923.56;;;5.43;68.32
49545;BME280;74870;42.636;23.302;2024-03-06T03:46:46;92936.59;;;5.43;68.39
49545;BME280;74870;42.636;23.302;2024-03-06T03:49:12;92922.53;;;5.24;68.25
49545;BME280;74870;42.636;23.302;2024-03-06T03:51:38;92933.47;;;5.41;68.44
49545;BME280;74870;42.636;23.302;2024-03-06T03:54:04;92949.88;;;5.27;69.14
49545;BME280;74870;42.636;23.302;2024-03-06T03:56:30;92951.44;;;5.18;69.05
49545;BME280;74870;42.636;23.302;2024-03-06T03:58:56;92932.97;;;5.29;68.90
49545;BME280;74870;42.636;23.302;2024-03-06T04:01:23;92939.97;;;5.34;68.31
49545;BME280;74870;42.636;23.302;2024-03-06T04:03:48;92946.22;;;5.38;68.18
49545;BME280;74870;42.636;23.302;2024-03-06T04:06:14;92877.81;;;4.97;68.49
49545;BME280;74870;42.636;23.302;2024-03-06T04:08:39;92923.59;;;4.98;69.58
49545;BME280;74870;42.636;23.302;2024-03-06T04:11:06;92871.59;;;4.68;69.86
49545;BME280;74870;42.636;23.302;2024-03-06T04:13:36;92930.13;;;5.10;69.72
49545;BME280;74870;42.636;23.302;2024-03-06T04:16:01;92957.44;;;5.23;69.17
49545;BME280;74870;42.636;23.302;2024-03-06T04:18:28;92926.47;;;4.91;69.47
49545;BME280;74870;42.636;23.302;2024-03-06T04:20:54;92961.31;;;5.16;69.31
49545;BME280;74870;42.636;23.302;2024-03-06T04:23:19;92899.94;;;4.79;69.00
49545;BME280;74870;42.636;23.302;2024-03-06T04:25:45;92957.41;;;5.13;69.22
49545;BME280;74870;42.636;23.302;2024-03-06T04:28:10;92961.31;;;5.16;69.46
49545;BME280;74870;42.636;23.302;2024-03-06T04:30:35;92971.47;;;5.12;69.21
49545;BME280;74870;42.636;23.302;2024-03-06T04:33:01;92969.13;;;5.16;68.99
49545;BME280;74870;42.636;23.302;2024-03-06T04:35:26;92956.91;;;5.11;68.98
49545;BME280;74870;42.636;23.302;2024-03-06T04:37:52;92963.41;;;5.19;68.88
49545;BME280;74870;42.636;23.302;2024-03-06T04:40:17;92954.06;;;5.13;68.88
49545;BME280;74870;42.636;23.302;2024-03-06T04:42:46;92973.56;;;5.15;68.61
49545;BME280;74870;42.636;23.302;2024-03-06T04:45:15;92951.44;;;5.02;68.41
49545;BME280;74870;42.636;23.302;2024-03-06T04:47:40;92972.78;;;5.09;68.80
49545;BME280;74870;42.636;23.302;2024-03-06T04:50:10;92839.81;;;4.15;68.85
49545;BME280;74870;42.636;23.302;2024-03-06T04:52:36;92978.75;;;5.00;69.62
49545;BME280;74870;42.636;23.302;2024-03-06T04:55:02;92974.06;;;4.97;69.77
49545;BME280;74870;42.636;23.302;2024-03-06T04:57:28;92975.09;;;5.01;69.85
49545;BME280;74870;42.636;23.302;2024-03-06T04:59:53;92982.94;;;5.16;69.58
49545;BME280;74870;42.636;23.302;2024-03-06T05:02:19;92994.13;;;5.22;69.62
49545;BME280;74870;42.636;23.302;2024-03-06T05:04:44;92995.97;;;5.31;70.03
49545;BME280;74870;42.636;23.302;2024-03-06T05:07:09;92992.56;;;5.41;70.08
49545;BME280;74870;42.636;23.302;2024-03-06T05:09:35;92986.81;;;5.49;69.95
49545;BME280;74870;42.636;23.302;2024-03-06T05:12:01;92978.25;;;5.43;70.21
49545;BME280;74870;42.636;23.302;2024-03-06T05:14:26;92969.13;;;5.51;69.93
49545;BME280;74870;42.636;23.302;2024-03-06T05:16:51;92988.09;;;5.81;69.78
49545;BME280;74870;42.636;23.302;2024-03-06T05:19:18;92971.44;;;5.62;69.74
49545;BME280;74870;42.636;23.302;2024-03-06T05:21:43;92980.28;;;5.91;69.21
49545;BME280;74870;42.636;23.302;2024-03-06T05:24:09;92939.63;;;5.90;68.80
49545;BME280;74870;42.636;23.302;2024-03-06T05:26:34;92997.06;;;6.88;66.62
49545;BME280;74870;42.636;23.302;2024-03-06T05:28:59;92999.34;;;7.33;65.63
49545;BME280;74870;42.636;23.302;2024-03-06T05:31:25;92990.50;;;7.92;63.85
49545;BME280;74870;42.636;23.302;2024-03-06T05:33:50;92978.72;;;8.41;61.79
49545;BME280;74870;42.636;23.302;2024-03-06T05:36:16;92993.81;;;9.10;60.01
49545;BME280;74870;42.636;23.302;2024-03-06T05:38:43;92974.06;;;9.50;58.23
49545;BME280;74870;42.636;23.302;2024-03-06T05:41:08;93000.22;;;10.01;56.97
49545;BME280;74870;42.636;23.302;2024-03-06T05:43:34;92998.31;;;10.20;56.62
49545;BME280;74870;42.636;23.302;2024-03-06T05:45:59;92998.41;;;10.29;56.29
49545;BME280;74870;42.636;23.302;2024-03-06T05:48:26;92998.56;;;9.91;56.64
49545;BME280;74870;42.636;23.302;2024-03-06T05:50:52;93009.28;;;9.76;57.47
49545;BME280;74870;42.636;23.302;2024-03-06T05:53:18;93009.38;;;9.71;58.01
49545;BME280;74870;42.636;23.302;2024-03-06T05:55:43;93003.41;;;8.35;62.83
49545;BME280;74870;42.636;23.302;2024-03-06T05:58:09;93017.00;;;8.09;65.32
49545;BME280;74870;42.636;23.302;2024-03-06T06:00:34;93022.31;;;8.22;65.05
49545;BME280;74870;42.636;23.302;2024-03-06T06:03:00;92999.38;;;8.43;63.59
49545;BME280;74870;42.636;23.302;2024-03-06T06:05:25;93024.44;;;8.49;63.80
49545;BME280;74870;42.636;23.302;2024-03-06T06:07:51;93031.38;;;8.59;63.37
49545;BME280;74870;42.636;23.302;2024-03-06T06:10:17;93026.03;;;8.21;64.25
49545;BME280;74870;42.636;23.302;2024-03-06T06:12:42;93023.88;;;8.00;64.65
49545;BME280;74870;42.636;23.302;2024-03-06T06:15:08;93016.78;;;7.77;65.04
49545;BME280;74870;42.636;23.302;2024-03-06T06:17:34;93029.47;;;7.88;65.45
49545;BME280;74870;42.636;23.302;2024-03-06T06:19:59;93027.50;;;7.75;66.55
49545;BME280;74870;42.636;23.302;2024-03-06T06:22:27;93023.81;;;7.76;66.82
49545;BME280;74870;42.636;23.302;2024-03-06T06:24:53;93024.91;;;7.75;67.02
49545;BME280;74870;42.636;23.302;2024-03-06T06:27:20;92992.13;;;7.54;67.28
49545;BME280;74870;42.636;23.302;2024-03-06T06:29:45;93028.88;;;7.96;68.20
49545;BME280;74870;42.636;23.302;2024-03-06T06:32:11;93032.13;;;8.12;67.10
49545;BME280;74870;42.636;23.302;2024-03-06T06:34:36;92969.63;;;7.87;66.81
49545;BME280;74870;42.636;23.302;2024-03-06T06:37:02;93020.53;;;8.46;65.99
49545;BME280;74870;42.636;23.302;2024-03-06T06:39:27;93020.66;;;8.60;64.15
49545;BME280;74870;42.636;23.302;2024-03-06T06:41:53;93000.72;;;8.64;64.35
49545;BME280;74870;42.636;23.302;2024-03-06T06:44:18;93020.13;;;9.19;63.38
49545;BME280;74870;42.636;23.302;2024-03-06T06:46:43;93021.53;;;9.49;61.89
49545;BME280;74870;42.636;23.302;2024-03-06T06:49:09;93018.13;;;9.80;60.95
49545;BME280;74870;42.636;23.302;2024-03-06T06:51:34;93023.69;;;9.92;60.28
49545;BME280;74870;42.636;23.302;2024-03-06T06:54:01;93023.13;;;10.28;58.65
49545;BME280;74870;42.636;23.302;2024-03-06T06:56:27;93023.31;;;10.18;57.98
49545;BME280;74870;42.636;23.302;2024-03-06T06:58:52;93019.53;;;10.24;58.12
49545;BME280;74870;42.636;23.302;2024-03-06T07:01:18;93007.00;;;10.48;56.96
49545;BME280;74870;42.636;23.302;2024-03-06T07:03:44;93020.22;;;10.70;55.94
49545;BME280;74870;42.636;23.302;2024-03-06T07:06:10;93033.38;;;11.06;55.90
49545;BME280;74870;42.636;23.302;2024-03-06T07:08:36;93013.50;;;11.13;54.08
49545;BME280;74870;42.636;23.302;2024-03-06T07:11:02;93034.88;;;10.84;54.85
49545;BME280;74870;42.636;23.302;2024-03-06T07:13:28;93023.41;;;10.80;55.83
49545;BME280;74870;42.636;23.302;2024-03-06T07:15:53;93023.78;;;10.47;56.66
49545;BME280;74870;42.636;23.302;2024-03-06T07:18:18;92979.41;;;10.04;57.24
49545;BME280;74870;42.636;23.302;2024-03-06T07:20:44;93031.66;;;10.33;57.97
49545;BME280;74870;42.636;23.302;2024-03-06T07:23:09;93031.25;;;10.12;58.27
49545;BME280;74870;42.636;23.302;2024-03-06T07:25:35;93026.63;;;10.64;58.15
49545;BME280;74870;42.636;23.302;2024-03-06T07:28:01;93036.34;;;10.90;56.89
49545;BME280;74870;42.636;23.302;2024-03-06T07:30:26;93043.91;;;10.92;56.63
49545;BME280;74870;42.636;23.302;2024-03-06T07:32:52;93032.25;;;10.84;56.83
49545;BME280;74870;42.636;23.302;2024-03-06T07:35:18;93040.97;;;11.21;55.99
49545;BME280;74870;42.636;23.302;2024-03-06T07:37:43;93036.84;;;11.28;55.54
49545;BME280;74870;42.636;23.302;2024-03-06T07:40:10;93025.22;;;11.43;54.79
49545;BME280;74870;42.636;23.302;2024-03-06T07:42:35;93037.53;;;11.92;54.33
49545;BME280;74870;42.636;23.302;2024-03-06T07:45:01;93024.41;;;12.00;53.36
49545;BME280;74870;42.636;23.302;2024-03-06T07:47:26;93020.56;;;11.98;52.65
49545;BME280;74870;42.636;23.302;2024-03-06T07:49:52;93017.84;;;11.89;53.02
49545;BME280;74870;42.636;23.302;2024-03-06T07:52:17;93026.34;;;11.86;52.84
49545;BME280;74870;42.636;23.302;2024-03-06T07:54:43;93028.38;;;11.53;53.78
49545;BME280;74870;42.636;23.302;2024-03-06T07:57:08;93027.84;;;11.07;54.74
49545;BME280;74870;42.636;23.302;2024-03-06T07:59:35;93032.34;;;11.42;54.42
49545;BME280;74870;42.636;23.302;2024-03-06T08:02:00;93032.81;;;11.44;53.82
49545;BME280;74870;42.636;23.302;2024-03-06T08:04:26;93036.31;;;11.40;54.74
49545;BME280;74870;42.636;23.302;2024-03-06T08:06:52;93037.09;;;11.76;54.01
49545;BME280;74870;42.636;23.302;2024-03-06T08:09:17;93028.31;;;11.80;53.15
49545;BME280;74870;42.636;23.302;2024-03-06T08:11:44;93038.91;;;11.89;53.07
49545;BME280;74870;42.636;23.302;2024-03-06T08:14:10;93037.47;;;11.47;54.52
49545;BME280;74870;42.636;23.302;2024-03-06T08:16:36;93043.84;;;11.68;53.29
49545;BME280;74870;42.636;23.302;2024-03-06T08:19:02;93040.84;;;11.61;53.70
49545;BME280;74870;42.636;23.302;2024-03-06T08:21:28;93027.97;;;11.38;53.80
49545;BME280;74870;42.636;23.302;2024-03-06T08:23:53;93038.59;;;11.19;54.22
49545;BME280;74870;42.636;23.302;2024-03-06T08:26:19;93044.44;;;11.30;54.14
49545;BME280;74870;42.636;23.302;2024-03-06T08:28:44;93040.13;;;11.34;53.89
49545;BME280;74870;42.636;23.302;2024-03-06T08:31:10;93002.06;;;10.95;54.11
49545;BME280;74870;42.636;23.302;2024-03-06T08:33:35;93039.59;;;11.10;54.40
49545;BME280;74870;42.636;23.302;2024-03-06T08:36:01;93032.06;;;10.94;54.76
49545;BME280;74870;42.636;23.302;2024-03-06T08:38:27;93037.97;;;11.00;54.67
49545;BME280;74870;42.636;23.302;2024-03-06T08:40:53;93035.88;;;11.24;54.48
49545;BME280;74870;42.636;23.302;2024-03-06T08:43:18;93042.47;;;11.35;54.21
49545;BME280;74870;42.636;23.302;2024-03-06T08:45:44;93038.94;;;11.40;54.29
49545;BME280;74870;42.636;23.302;2024-03-06T08:48:10;93027.69;;;11.26;54.56
49545;BME280;74870;42.636;23.302;2024-03-06T08:50:36;93043.78;;;11.24;54.52
49545;BME280;74870;42.636;23.302;2024-03-06T08:53:02;93045.22;;;11.30;54.67
49545;BME280;74870;42.636;23.302;2024-03-06T08:55:28;93033.66;;;11.18;54.62
49545;BME280;74870;42.636;23.302;2024-03-06T08:57:53;93045.16;;;11.44;54.26
49545;BME280;74870;42.636;23.302;2024-03-06T09:00:19;93052.06;;;11.53;54.16
49545;BME280;74870;42.636;23.302;2024-03-06T09:02:45;93029.63;;;11.34;54.46
49545;BME280;74870;42.636;23.302;2024-03-06T09:05:10;93054.03;;;11.48;53.79
49545;BME280;74870;42.636;23.302;2024-03-06T09:07:38;93046.88;;;11.62;53.25
49545;BME280;74870;42.636;23.302;2024-03-06T09:10:06;93052.97;;;11.49;53.33
49545;BME280;74870;42.636;23.302;2024-03-06T09:12:32;93051.56;;;11.51;53.22
49545;BME280;74870;42.636;23.302;2024-03-06T09:14:57;93053.19;;;11.74;52.88
49545;BME280;74870;42.636;23.302;2024-03-06T09:17:25;93041.63;;;11.84;51.85
49545;BME280;74870;42.636;23.302;2024-03-06T09:19:51;93056.22;;;11.90;52.84
49545;BME280;74870;42.636;23.302;2024-03-06T09:22:16;93014.88;;;11.46;52.36
49545;BME280;74870;42.636;23.302;2024-03-06T09:24:42;93046.88;;;11.62;51.96
49545;BME280;74870;42.636;23.302;2024-03-06T09:27:08;93051.69;;;11.46;53.11
49545;BME280;74870;42.636;23.302;2024-03-06T09:29:33;93052.09;;;11.40;53.30
49545;BME280;74870;42.636;23.302;2024-03-06T09:31:59;93034.81;;;11.25;53.60
49545;BME280;74870;42.636;23.302;2024-03-06T09:34:24;93054.84;;;11.21;54.25
49545;BME280;74870;42.636;23.302;2024-03-06T09:36:50;93038.81;;;11.23;53.81
49545;BME280;74870;42.636;23.302;2024-03-06T09:39:17;93046.69;;;11.23;53.30
49545;BME280;74870;42.636;23.302;2024-03-06T09:41:53;93047.09;;;11.16;53.46
49545;BME280;74870;42.636;23.302;2024-03-06T09:44:19;93042.66;;;11.39;53.16
49545;BME280;74870;42.636;23.302;2024-03-06T09:46:47;93046.47;;;11.33;53.50
49545;BME280;74870;42.636;23.302;2024-03-06T09:49:14;93044.63;;;11.33;53.54
49545;BME280;74870;42.636;23.302;2024-03-06T09:51:42;93047.44;;;11.37;53.90
49545;BME280;74870;42.636;23.302;2024-03-06T09:54:11;93058.06;;;11.32;53.01
49545;BME280;74870;42.636;23.302;2024-03-06T09:56:38;93045.41;;;11.34;53.74
49545;BME280;74870;42.636;23.302;2024-03-06T09:59:04;93042.38;;;11.40;52.92
49545;BME280;74870;42.636;23.302;2024-03-06T10:01:31;93035.50;;;11.66;53.27
49545;BME280;74870;42.636;23.302;2024-03-06T10:03:57;93031.84;;;11.76;51.76
49545;BME280;74870;42.636;23.302;2024-03-06T10:06:23;93032.44;;;11.73;51.97
49545;BME280;74870;42.636;23.302;2024-03-06T10:08:48;93029.44;;;11.88;51.49
49545;BME280;74870;42.636;23.302;2024-03-06T10:11:15;93003.66;;;11.99;52.30
49545;BME280;74870;42.636;23.302;2024-03-06T10:13:42;93031.81;;;12.51;52.00
49545;BME280;74870;42.636;23.302;2024-03-06T10:16:07;93028.56;;;12.54;49.96
49545;BME280;74870;42.636;23.302;2024-03-06T10:18:35;93019.25;;;12.48;49.87
49545;BME280;74870;42.636;23.302;2024-03-06T10:21:01;93023.78;;;12.56;50.30
49545;BME280;74870;42.636;23.302;2024-03-06T10:23:27;92980.09;;;12.16;49.51
49545;BME280;74870;42.636;23.302;2024-03-06T10:25:55;93011.84;;;12.58;50.75
49545;BME280;74870;42.636;23.302;2024-03-06T10:28:22;93011.00;;;12.41;49.67
49545;BME280;74870;42.636;23.302;2024-03-06T10:30:49;93016.81;;;12.68;49.67
49545;BME280;74870;42.636;23.302;2024-03-06T10:33:16;93013.16;;;12.87;48.86
49545;BME280;74870;42.636;23.302;2024-03-06T10:35:45;93008.84;;;12.91;48.79
49545;BME280;74870;42.636;23.302;2024-03-06T10:38:12;93003.38;;;12.79;48.45
49545;BME280;74870;42.636;23.302;2024-03-06T10:40:39;92986.00;;;12.69;48.79
49545;BME280;74870;42.636;23.302;2024-03-06T10:43:06;93008.56;;;12.53;48.23
49545;BME280;74870;42.636;23.302;2024-03-06T10:46:00;93001.03;;;12.68;47.28
49545;BME280;74870;42.636;23.302;2024-03-06T10:48:30;92992.38;;;12.68;47.79
49545;BME280;74870;42.636;23.302;2024-03-06T10:50:56;92983.41;;;12.78;47.05
49545;BME280;74870;42.636;23.302;2024-03-06T10:53:25;92984.16;;;12.70;45.26
49545;BME280;74870;42.636;23.302;2024-03-06T10:55:52;92984.16;;;12.70;45.85
49545;BME280;74870;42.636;23.302;2024-03-06T10:58:19;92972.50;;;12.71;45.21
49545;BME280;74870;42.636;23.302;2024-03-06T11:00:46;92975.91;;;12.54;44.92
49545;BME280;74870;42.636;23.302;2024-03-06T11:03:12;92971.19;;;12.42;45.42
49545;BME280;74870;42.636;23.302;2024-03-06T11:05:39;92974.97;;;12.50;45.53
49545;BME280;74870;42.636;23.302;2024-03-06T11:08:08;92969.69;;;12.50;44.83
49545;BME280;74870;42.636;23.302;2024-03-06T11:10:35;92963.84;;;12.61;44.63
49545;BME280;74870;42.636;23.302;2024-03-06T11:13:03;92947.56;;;12.59;43.46
49545;BME280;74870;42.636;23.302;2024-03-06T11:15:30;92951.53;;;12.40;44.66
49545;BME280;74870;42.636;23.302;2024-03-06T11:17:55;92952.84;;;12.68;44.76
49545;BME280;74870;42.636;23.302;2024-03-06T11:20:21;92943.81;;;12.60;44.17
49545;BME280;74870;42.636;23.302;2024-03-06T11:28:57;92937.06;;;12.85;45.18
49545;BME280;74870;42.636;23.302;2024-03-06T11:31:10;92925.91;;;12.88;44.44
49545;BME280;74870;42.636;23.302;2024-03-06T11:33:45;92914.56;;;12.71;44.60
49545;BME280;74870;42.636;23.302;2024-03-06T11:38:55;92927.59;;;12.76;44.18
49545;BME280;74870;42.636;23.302;2024-03-06T11:41:28;92932.44;;;12.82;44.65
49545;BME280;74870;42.636;23.302;2024-03-06T11:43:55;92919.88;;;12.88;43.28
49545;BME280;74870;42.636;23.302;2024-03-06T11:49:15;92910.75;;;13.02;43.91
49545;BME280;74870;42.636;23.302;2024-03-06T11:51:41;92914.44;;;13.01;43.55
49545;BME280;74870;42.636;23.302;2024-03-06T11:54:07;92913.56;;;13.06;43.74
49545;BME280;74870;42.636;23.302;2024-03-06T11:56:32;92908.16;;;13.11;44.20
49545;BME280;74870;42.636;23.302;2024-03-06T11:58:58;92912.16;;;13.25;44.11
49545;BME280;74870;42.636;23.302;2024-03-06T12:01:24;92898.94;;;12.74;42.82
49545;BME280;74870;42.636;23.302;2024-03-06T12:03:49;92898.03;;;13.21;43.02
49545;BME280;74870;42.636;23.302;2024-03-06T12:06:15;92902.38;;;13.26;42.67
49545;BME280;74870;42.636;23.302;2024-03-06T12:08:42;92903.59;;;13.45;41.55
49545;BME280;74870;42.636;23.302;2024-03-06T12:11:07;92900.03;;;13.50;41.76
49545;BME280;74870;42.636;23.302;2024-03-06T12:13:33;92898.91;;;13.68;41.81
49545;BME280;74870;42.636;23.302;2024-03-06T12:16:04;92896.50;;;13.92;41.17
49545;BME280;74870;42.636;23.302;2024-03-06T12:18:29;92890.28;;;14.05;41.64
49545;BME280;74870;42.636;23.302;2024-03-06T12:20:54;92895.72;;;13.92;40.28
49545;BME280;74870;42.636;23.302;2024-03-06T12:23:23;92880.69;;;13.92;40.40
49545;BME280;74870;42.636;23.302;2024-03-06T12:25:50;92884.13;;;13.76;41.56
49545;BME280;74870;42.636;23.302;2024-03-06T12:28:24;92889.03;;;13.39;41.24
49545;BME280;74870;42.636;23.302;2024-03-06T12:30:49;92885.63;;;13.13;41.47
49545;BME280;74870;42.636;23.302;2024-03-06T12:33:16;92882.81;;;13.44;41.63
49545;BME280;74870;42.636;23.302;2024-03-06T12:35:41;92875.06;;;13.47;40.20
49545;BME280;74870;42.636;23.302;2024-03-06T12:38:16;92886.03;;;13.67;40.77
49545;BME280;74870;42.636;23.302;2024-03-06T12:40:42;92826.47;;;13.57;40.62
49545;BME280;74870;42.636;23.302;2024-03-06T12:43:07;92882.34;;;14.05;39.70
49545;BME280;74870;42.636;23.302;2024-03-06T12:45:34;92875.59;;;14.16;38.98
49545;BME280;74870;42.636;23.302;2024-03-06T12:48:00;92882.94;;;14.11;39.09
49545;BME280;74870;42.636;23.302;2024-03-06T12:50:25;92877.91;;;13.89;38.88
49545;BME280;74870;42.636;23.302;2024-03-06T12:52:50;92881.03;;;13.82;39.17
49545;BME280;74870;42.636;23.302;2024-03-06T12:55:17;92871.72;;;13.76;38.83
49545;BME280;74870;42.636;23.302;2024-03-06T12:57:42;92878.94;;;13.96;39.01
49545;BME280;74870;42.636;23.302;2024-03-06T13:00:08;92862.53;;;13.91;40.63